createdAt,value
2019-02-21T00:02:15.052Z,38.00
2019-02-21T00:05:18.678Z,45.23
2019-02-21T00:08:21.383Z,35.50
2019-02-21T00:11:23.921Z,35.13
2019-02-21T00:14:26.590Z,36.10
2019-02-21T00:17:29.194Z,32.13
2019-02-21T00:20:31.983Z,41.57
2019-02-21T00:23:34.591Z,39.73
2019-02-21T00:26:37.203Z,38.43
2019-02-21T00:29:39.762Z,35.43
2019-02-21T00:32:42.367Z,37.13
2019-02-21T00:35:44.983Z,33.90
2019-02-21T00:38:47.542Z,31.73
2019-02-21T00:41:50.243Z,36.70
2019-02-21T00:44:52.853Z,36.10
2019-02-21T00:47:55.534Z,38.17
2019-02-21T00:50:58.250Z,36.23
2019-02-21T00:54:00.982Z,35.03
2019-02-21T00:57:03.532Z,32.90
2019-02-21T01:00:07.741Z,43.83
2019-02-21T01:03:10.330Z,32.13
2019-02-21T01:06:12.989Z,34.47
2019-02-21T01:09:15.592Z,36.20
2019-02-21T01:12:18.241Z,36.93
2019-02-21T01:15:20.941Z,30.77
2019-02-21T01:18:23.586Z,39.13
2019-02-21T01:21:26.134Z,37.27
2019-02-21T01:24:28.944Z,34.63
2019-02-21T01:27:31.672Z,35.57
2019-02-21T01:30:34.547Z,30.93
2019-02-21T01:33:37.180Z,35.53
2019-02-21T01:36:39.856Z,33.83
2019-02-21T01:39:42.554Z,32.40
2019-02-21T01:42:45.137Z,34.20
2019-02-21T01:45:47.839Z,33.90
2019-02-21T01:48:51.542Z,33.07
2019-02-21T01:51:54.198Z,37.30
2019-02-21T01:54:56.741Z,33.67
2019-02-21T01:57:59.483Z,34.50
2019-02-21T02:01:08.604Z,33.23
2019-02-21T02:04:06.475Z,33.20
2019-02-21T02:07:09.106Z,29.50
2019-02-21T02:10:11.741Z,35.83
2019-02-21T02:13:24.127Z,33.03
2019-02-21T02:16:19.786Z,32.27
2019-02-21T02:19:22.363Z,37.80
2019-02-21T02:22:24.963Z,34.10
2019-02-21T02:25:27.630Z,32.00
2019-02-21T02:28:30.221Z,34.13
2019-02-21T02:31:32.802Z,33.20
2019-02-21T02:34:35.503Z,32.63
2019-02-21T02:37:38.151Z,32.47
2019-02-21T02:40:40.756Z,32.83
2019-02-21T02:43:43.324Z,30.23
2019-02-21T02:46:45.968Z,29.67
2019-02-21T02:49:48.515Z,31.03
2019-02-21T02:52:51.149Z,34.50
2019-02-21T02:55:53.779Z,33.03
2019-02-21T02:58:56.468Z,31.70
2019-02-21T03:01:59.075Z,29.27
2019-02-21T03:05:01.721Z,35.63
2019-02-21T03:08:04.446Z,29.00
2019-02-21T03:11:07.174Z,31.23
2019-02-21T03:14:09.857Z,33.77
2019-02-21T03:17:12.891Z,33.40
2019-02-21T03:20:15.535Z,33.47
2019-02-21T03:23:18.146Z,34.40
2019-02-21T03:26:20.901Z,38.00
2019-02-21T03:29:23.509Z,32.50
2019-02-21T03:32:26.197Z,30.67
2019-02-21T03:35:28.896Z,38.33
2019-02-21T03:38:35.056Z,31.90
2019-02-21T03:41:38.916Z,37.60
2019-02-21T03:44:41.547Z,36.30
2019-02-21T03:47:44.251Z,33.23
2019-02-21T03:50:46.994Z,37.83
2019-02-21T03:53:49.661Z,36.63
2019-02-21T03:56:52.400Z,36.77
2019-02-21T03:59:55.082Z,40.10
2019-02-21T04:02:57.709Z,41.77
2019-02-21T04:06:00.313Z,36.70
2019-02-21T04:09:04.875Z,42.00
2019-02-21T04:12:08.575Z,40.23
2019-02-21T04:15:12.405Z,40.20
2019-02-21T04:18:15.139Z,37.23
2019-02-21T04:21:18.617Z,41.03
2019-02-21T04:24:21.195Z,37.13
2019-02-21T04:27:23.767Z,36.63
2019-02-21T04:30:26.422Z,36.13
2019-02-21T04:33:29.045Z,42.43
2019-02-21T04:36:32.518Z,42.23
2019-02-21T04:39:35.066Z,42.87
2019-02-21T04:42:37.730Z,41.67
2019-02-21T04:45:40.601Z,43.83
2019-02-21T04:48:43.237Z,40.23
2019-02-21T04:51:45.956Z,43.77
2019-02-21T04:54:48.592Z,42.30
2019-02-21T04:57:51.244Z,37.70
2019-02-21T05:00:53.752Z,42.23
2019-02-21T05:03:56.362Z,36.23
2019-02-21T05:06:59.159Z,39.70
2019-02-21T05:10:03.265Z,38.10
2019-02-21T05:13:05.937Z,35.60
2019-02-21T05:16:08.466Z,46.40
2019-02-21T05:19:11.042Z,39.80
2019-02-21T05:22:13.783Z,38.60
2019-02-21T05:25:16.491Z,39.53
2019-02-21T05:28:41.161Z,41.60
2019-02-21T05:31:53.111Z,38.33
2019-02-21T05:35:14.199Z,51.73
2019-02-21T05:38:45.507Z,41.80
2019-02-21T05:42:06.952Z,41.13
2019-02-21T05:45:14.577Z,41.53
2019-02-21T05:48:28.900Z,44.13
2019-02-21T05:51:45.728Z,41.10
2019-02-21T05:55:07.867Z,43.43
2019-02-21T05:58:21.161Z,42.37
2019-02-21T06:01:55.375Z,43.57
2019-02-21T06:05:20.510Z,48.77
2019-02-21T06:08:49.039Z,45.17
2019-02-21T06:12:17.043Z,42.47
2019-02-21T06:15:47.455Z,45.63
2019-02-21T06:19:08.336Z,45.57
2019-02-21T06:22:22.142Z,48.67
2019-02-21T06:25:50.985Z,42.50
2019-02-21T06:29:00.249Z,49.80
2019-02-21T06:32:13.582Z,46.77
2019-02-21T06:35:07.565Z,42.27
2019-02-21T06:38:10.211Z,49.60
2019-02-21T06:41:12.870Z,43.20
2019-02-21T06:44:15.552Z,50.60
2019-02-21T06:47:18.250Z,43.23
2019-02-21T06:50:32.930Z,46.17
2019-02-21T06:53:39.577Z,46.07
2019-02-21T06:56:42.119Z,48.27
2019-02-21T06:59:48.377Z,49.83
2019-02-21T07:02:50.926Z,60.60
2019-02-21T07:05:54.447Z,51.47
2019-02-21T07:08:57.106Z,46.80
2019-02-21T07:11:59.760Z,49.83
2019-02-21T07:15:02.337Z,50.00
2019-02-21T07:18:05.085Z,46.33
2019-02-21T07:21:07.619Z,50.67
2019-02-21T07:24:10.272Z,51.50
2019-02-21T07:27:12.860Z,48.07
2019-02-21T07:30:20.033Z,52.33
2019-02-21T07:33:28.501Z,49.20
2019-02-21T07:36:24.678Z,48.67
2019-02-21T07:39:35.560Z,54.33
2019-02-21T07:42:31.852Z,51.03
2019-02-21T07:45:36.683Z,48.33
2019-02-21T07:48:39.415Z,50.70
2019-02-21T07:51:43.118Z,46.97
2019-02-21T07:54:49.500Z,52.53
2019-02-21T07:57:53.588Z,51.00
2019-02-21T08:00:57.156Z,52.63
2019-02-21T08:03:59.835Z,55.73
2019-02-21T08:07:02.666Z,53.27
2019-02-21T08:10:05.855Z,52.47
2019-02-21T08:13:08.586Z,51.47
2019-02-21T08:16:12.587Z,46.90
2019-02-21T08:19:15.387Z,51.47
2019-02-21T08:22:18.292Z,53.60
2019-02-21T08:25:20.915Z,54.83
2019-02-21T08:28:23.670Z,49.80
2019-02-21T08:31:26.440Z,47.33
2019-02-21T08:34:36.484Z,45.60
2019-02-21T08:37:39.003Z,47.70
2019-02-21T08:40:41.696Z,48.73
2019-02-21T08:43:44.409Z,45.97
2019-02-21T08:46:47.068Z,46.33
2019-02-21T08:49:50.899Z,54.40
2019-02-21T08:52:53.449Z,46.87
2019-02-21T08:55:58.353Z,47.30
2019-02-21T08:59:01.074Z,47.53
2019-02-21T09:02:05.092Z,45.83
2019-02-21T09:05:09.463Z,44.23
2019-02-21T09:08:12.335Z,47.00
2019-02-21T09:11:15.049Z,46.60
2019-02-21T09:14:17.714Z,42.70
2019-02-21T09:17:20.244Z,48.20
2019-02-21T09:20:23.020Z,51.37
2019-02-21T09:23:25.700Z,42.97
2019-02-21T09:26:28.274Z,46.23
2019-02-21T09:29:30.793Z,41.60
2019-02-21T09:32:33.446Z,45.40
2019-02-21T09:35:37.325Z,43.80
2019-02-21T09:38:40.043Z,42.77
2019-02-21T09:41:42.827Z,39.93
2019-02-21T09:44:49.673Z,45.57
2019-02-21T09:47:51.769Z,38.00
2019-02-21T09:50:56.226Z,41.90
2019-02-21T09:53:58.946Z,38.27
2019-02-21T09:57:12.414Z,42.83
2019-02-21T10:00:10.015Z,39.30
2019-02-21T10:03:12.555Z,40.93
2019-02-21T10:06:15.285Z,48.77
2019-02-21T10:09:17.826Z,44.37
2019-02-21T10:12:20.506Z,37.10
2019-02-21T10:15:23.164Z,39.80
2019-02-21T10:18:25.710Z,38.43
2019-02-21T10:21:28.340Z,40.40
2019-02-21T10:24:30.966Z,34.53
2019-02-21T10:27:33.592Z,38.30
2019-02-21T10:30:36.450Z,44.03
2019-02-21T10:33:46.560Z,48.67
2019-02-21T10:36:43.844Z,48.17
2019-02-21T10:39:47.896Z,41.50
2019-02-21T10:42:50.691Z,41.80
2019-02-21T10:45:53.277Z,48.43
2019-02-21T10:48:55.889Z,44.90
2019-02-21T10:51:58.480Z,52.53
2019-02-21T10:55:01.071Z,46.90
2019-02-21T10:58:06.236Z,40.67
2019-02-21T11:01:08.885Z,42.10
2019-02-21T11:04:11.490Z,43.50
2019-02-21T11:07:15.101Z,48.30
2019-02-21T11:10:20.769Z,48.27
2019-02-21T11:13:23.334Z,46.63
2019-02-21T11:16:26.036Z,51.47
2019-02-21T11:19:29.985Z,51.60
2019-02-21T11:22:32.621Z,46.50
2019-02-21T11:25:35.281Z,52.40
2019-02-21T11:28:37.914Z,45.43
2019-02-21T11:31:40.645Z,49.20
2019-02-21T11:34:43.344Z,45.17
2019-02-21T11:37:47.375Z,41.80
2019-02-21T11:40:50.389Z,43.40
2019-02-21T11:43:52.994Z,46.77
2019-02-21T11:46:55.550Z,44.47
2019-02-21T11:49:58.239Z,45.43
2019-02-21T11:53:00.840Z,42.27
2019-02-21T11:56:03.529Z,47.20
2019-02-21T11:59:06.164Z,40.10
2019-02-21T12:02:08.820Z,40.70
2019-02-21T12:05:17.451Z,44.20
2019-02-21T12:08:16.071Z,43.30
2019-02-21T12:11:18.974Z,42.40
2019-02-21T12:14:21.694Z,39.13
2019-02-21T12:17:24.280Z,49.33
2019-02-21T12:20:26.899Z,45.00
2019-02-21T12:23:29.696Z,37.67
2019-02-21T12:26:32.479Z,40.47
2019-02-21T12:29:35.160Z,37.13
2019-02-21T12:32:37.761Z,38.57
2019-02-21T12:35:40.552Z,37.30
2019-02-21T12:38:46.491Z,42.20
2019-02-21T12:41:49.328Z,38.50
2019-02-21T12:44:53.653Z,39.67
2019-02-21T12:47:56.284Z,44.07
2019-02-21T12:50:58.964Z,40.50
2019-02-21T12:54:01.688Z,40.83
2019-02-21T12:57:04.329Z,39.50
2019-02-21T13:00:10.260Z,34.53
2019-02-21T13:03:12.873Z,36.80
2019-02-21T13:06:15.456Z,42.40
2019-02-21T13:09:18.123Z,43.57
2019-02-21T13:12:20.896Z,40.87
2019-02-21T13:15:23.479Z,39.10
2019-02-21T13:18:26.258Z,38.93
2019-02-21T13:21:29.890Z,39.03
2019-02-21T13:24:32.518Z,35.60
2019-02-21T13:27:35.095Z,37.23
2019-02-21T13:30:39.234Z,39.60
2019-02-21T13:33:41.975Z,37.27
2019-02-21T13:36:44.639Z,36.83
2019-02-21T13:39:47.354Z,36.67
2019-02-21T13:42:50.979Z,36.20
2019-02-21T13:45:53.635Z,40.33
2019-02-21T13:48:56.414Z,34.37
2019-02-21T13:51:58.964Z,32.90
2019-02-21T13:55:01.715Z,29.27
2019-02-21T13:58:04.435Z,31.63
2019-02-21T14:01:07.113Z,31.17
2019-02-21T14:04:09.813Z,29.60
2019-02-21T14:07:12.393Z,29.87
2019-02-21T14:10:15.071Z,29.97
2019-02-21T14:13:17.956Z,31.03
2019-02-21T14:16:20.565Z,28.70
2019-02-21T14:19:23.133Z,26.43
2019-02-21T14:22:27.449Z,31.80
2019-02-21T14:25:40.308Z,28.27
2019-02-21T14:28:37.290Z,28.67
2019-02-21T14:31:39.206Z,30.50
2019-02-21T14:34:41.905Z,29.57
2019-02-21T14:37:44.596Z,32.50
2019-02-21T14:40:47.159Z,35.70
2019-02-21T14:43:49.853Z,34.73
2019-02-21T14:46:52.564Z,34.83
2019-02-21T14:49:55.257Z,36.47
2019-02-21T14:52:57.914Z,37.20
2019-02-21T14:56:00.460Z,38.40
2019-02-21T14:59:03.090Z,43.20
2019-02-21T15:02:06.219Z,38.17
2019-02-21T15:05:10.131Z,43.17
2019-02-21T15:08:18.163Z,39.47
2019-02-21T15:11:20.948Z,42.70
2019-02-21T15:14:24.544Z,43.47
2019-02-21T15:17:27.118Z,42.63
2019-02-21T15:20:36.698Z,43.73
2019-02-21T15:23:36.894Z,42.47
2019-02-21T15:26:38.684Z,38.60
2019-02-21T15:29:42.234Z,46.13
2019-02-21T15:32:45.173Z,49.70
2019-02-21T15:35:48.080Z,46.37
2019-02-21T15:38:50.654Z,43.53
2019-02-21T15:41:53.268Z,46.23
2019-02-21T15:44:55.994Z,46.23
2019-02-21T15:47:58.746Z,44.67
2019-02-21T15:51:01.470Z,46.80
2019-02-21T15:54:04.223Z,45.97
2019-02-21T15:57:06.870Z,45.70
2019-02-21T16:00:11.386Z,47.97
2019-02-21T16:03:14.057Z,45.77
2019-02-21T16:06:16.760Z,47.73
2019-02-21T16:09:19.422Z,50.43
2019-02-21T16:12:22.464Z,44.83
2019-02-21T16:15:25.328Z,47.33
2019-02-21T16:18:28.044Z,52.87
2019-02-21T16:21:30.740Z,51.07
2019-02-21T16:24:33.415Z,54.80
2019-02-21T16:27:36.052Z,52.30
2019-02-21T16:30:38.738Z,49.33
2019-02-21T16:33:41.572Z,51.10
2019-02-21T16:36:44.164Z,44.07
2019-02-21T16:39:46.758Z,46.43
2019-02-21T16:42:49.348Z,48.00
2019-02-21T16:45:53.857Z,45.57
2019-02-21T16:48:56.493Z,41.63
2019-02-21T16:51:59.218Z,41.60
2019-02-21T16:55:03.015Z,37.90
2019-02-21T16:58:05.677Z,39.23
2019-02-21T17:01:08.515Z,42.00
2019-02-21T17:04:11.053Z,33.50
2019-02-21T17:07:19.819Z,35.00
2019-02-21T17:10:18.159Z,36.93
2019-02-21T17:13:20.826Z,32.03
2019-02-21T17:16:23.570Z,42.90
2019-02-21T17:19:26.179Z,37.27
2019-02-21T17:22:28.823Z,34.43
2019-02-21T17:25:31.537Z,31.77
2019-02-21T17:28:34.153Z,40.07
2019-02-21T17:31:37.356Z,36.70
2019-02-21T17:34:40.187Z,38.73
2019-02-21T17:37:42.875Z,42.07
2019-02-21T17:40:45.630Z,38.90
2019-02-21T17:43:48.320Z,41.20
2019-02-21T17:46:50.983Z,38.27
2019-02-21T17:49:53.565Z,37.33
2019-02-21T17:52:56.245Z,38.43
2019-02-21T17:55:58.920Z,43.60
2019-02-21T17:59:01.525Z,37.10
2019-02-21T18:02:04.255Z,43.40
2019-02-21T18:05:07.388Z,40.63
2019-02-21T18:08:10.045Z,40.63
2019-02-21T18:11:12.854Z,39.93
2019-02-21T18:14:15.446Z,41.10
2019-02-21T18:17:18.238Z,36.30
2019-02-21T18:20:20.888Z,43.40
2019-02-21T18:23:23.624Z,46.40
2019-02-21T18:26:26.233Z,44.57
2019-02-21T18:29:28.856Z,46.83
2019-02-21T18:32:33.325Z,48.37
2019-02-21T18:35:35.987Z,40.80
2019-02-21T18:38:38.682Z,46.57
2019-02-21T18:41:41.623Z,45.00
2019-02-21T18:44:44.604Z,45.77
2019-02-21T18:47:47.453Z,45.63
2019-02-21T18:50:50.353Z,41.73
2019-02-21T18:53:53.179Z,44.33
2019-02-21T18:56:57.143Z,53.53
2019-02-21T19:00:00.234Z,54.00
2019-02-21T19:03:04.305Z,47.63
2019-02-21T19:06:08.234Z,54.93
2019-02-21T19:09:11.036Z,54.03
2019-02-21T19:12:13.868Z,58.77
2019-02-21T19:15:17.475Z,56.10
2019-02-21T19:18:20.078Z,54.67
2019-02-21T19:21:22.766Z,56.30
2019-02-21T19:24:25.431Z,56.43
2019-02-21T19:27:36.865Z,64.83
2019-02-21T19:30:39.004Z,61.70
2019-02-21T19:33:42.123Z,68.00
2019-02-21T19:36:44.952Z,66.70
2019-02-21T19:39:47.598Z,67.23
2019-02-21T19:42:50.617Z,63.93
2019-02-21T19:45:53.361Z,72.57
2019-02-21T19:48:56.208Z,70.77
2019-02-21T19:51:58.849Z,78.10
2019-02-21T19:55:01.479Z,76.83
2019-02-21T19:58:06.007Z,79.17
2019-02-21T20:01:08.812Z,86.20
2019-02-21T20:04:11.407Z,86.17
2019-02-21T20:07:14.081Z,88.37
2019-02-21T20:10:16.988Z,82.03
2019-02-21T20:13:19.749Z,83.80
2019-02-21T20:16:22.713Z,87.23
2019-02-21T20:19:25.328Z,90.30
2019-02-21T20:22:28.185Z,88.13
2019-02-21T20:25:30.873Z,87.50
2019-02-21T20:28:33.463Z,95.53
2019-02-21T20:31:36.218Z,86.83
2019-02-21T20:34:38.873Z,81.70
2019-02-21T20:37:43.579Z,88.03
2019-02-21T20:40:46.362Z,85.20
2019-02-21T20:43:48.996Z,94.97
2019-02-21T20:46:51.658Z,87.17
2019-02-21T20:49:54.485Z,86.37
2019-02-21T20:52:57.218Z,78.73
2019-02-21T20:56:01.853Z,80.37
2019-02-21T20:59:04.838Z,72.00
2019-02-21T21:02:08.067Z,75.37
2019-02-21T21:05:11.036Z,85.53
2019-02-21T21:08:13.601Z,79.43
2019-02-21T21:11:16.301Z,78.37
2019-02-21T21:14:18.989Z,79.93
2019-02-21T21:17:24.014Z,65.97
2019-02-21T21:20:27.669Z,67.90
2019-02-21T21:23:32.813Z,66.17
2019-02-21T21:26:35.503Z,66.00
2019-02-21T21:29:38.153Z,62.83
2019-02-21T21:32:40.823Z,68.60
2019-02-21T21:35:43.418Z,62.83
2019-02-21T21:38:53.649Z,60.83
2019-02-21T21:41:50.991Z,59.97
2019-02-21T21:44:53.810Z,56.13
2019-02-21T21:47:57.403Z,57.50
2019-02-21T21:51:00.290Z,53.50
2019-02-21T21:54:03.846Z,56.30
2019-02-21T21:57:06.511Z,56.37
2019-02-21T22:00:13.106Z,55.57
2019-02-21T22:03:17.377Z,54.63
2019-02-21T22:06:20.011Z,56.87
2019-02-21T22:09:22.863Z,60.67
2019-02-21T22:12:25.617Z,57.10
2019-02-21T22:15:28.336Z,64.97
2019-02-21T22:18:31.148Z,65.87
2019-02-21T22:21:35.952Z,65.37
2019-02-21T22:24:38.761Z,60.60
2019-02-21T22:27:41.547Z,60.40
2019-02-21T22:30:44.157Z,69.53
2019-02-21T22:33:46.916Z,66.30
2019-02-21T22:36:49.618Z,67.20
2019-02-21T22:39:52.306Z,59.43
2019-02-21T22:42:55.034Z,62.17
2019-02-21T22:45:57.642Z,64.13
2019-02-21T22:49:00.455Z,63.03
2019-02-21T22:52:03.013Z,65.40
2019-02-21T22:55:09.725Z,75.63
2019-02-21T22:58:10.411Z,70.30
2019-02-21T23:01:28.594Z,69.30
2019-02-21T23:05:20.960Z,70.10
2019-02-21T23:08:52.430Z,63.37
2019-02-21T23:11:55.192Z,69.07
2019-02-21T23:14:57.821Z,69.13
2019-02-21T23:18:00.397Z,66.90
2019-02-21T23:21:04.178Z,75.77
2019-02-21T23:24:06.715Z,72.00
2019-02-21T23:27:09.520Z,72.30
2019-02-21T23:30:12.847Z,69.10
2019-02-21T23:33:15.622Z,73.00
2019-02-21T23:36:18.206Z,83.53
2019-02-21T23:39:20.827Z,71.20
2019-02-21T23:42:23.394Z,78.07
2019-02-21T23:45:25.992Z,76.27
2019-02-21T23:48:28.632Z,72.87
2019-02-21T23:51:31.422Z,63.67
2019-02-21T23:54:33.956Z,70.10
2019-02-21T23:57:36.673Z,63.63
